Terminal Aerodrome Forecast
Issued by NWS

Home | Current Version | Previous Version | Text Only | Print | Product List | Glossary Off
Versions: 1 2 3 4 5 6 7 8 9 10 11 12 13 14 15 16 17 18 19 20 21 22

852
FTUS42 KMHX 280244 AAA
TAFPGV
TAF AMD
KPGV 280244Z 2803/2824 22008KT P6SM VCTS BKN040CB BKN150
      TEMPO 2803/2806 VRB15G25KT 3SM TSRA BKN025CB
     FM280600 21004KT P6SM VCSH BKN050
     FM281200 22007KT P6SM VCSH BKN050
     FM281800 24008KT P6SM VCTS BKN050CB
      AMD LTD TO CLD VIS AND WIND=

USA.gov is the U.S. government's official web portal to all federal, state and local government web resources and services.